sensor_id;sensor_type;location;lat;lon;timestamp;P1;durP1;ratioP1;P2;durP2;ratioP2
8007;SDS011;4049;49.468;11.200;2023-06-22T00:01:18;9.73;;;6.10;;
8007;SDS011;4049;49.468;11.200;2023-06-22T00:03:46;7.30;;;5.40;;
8007;SDS011;4049;49.468;11.200;2023-06-22T00:06:13;7.83;;;6.50;;
8007;SDS011;4049;49.468;11.200;2023-06-22T00:08:40;12.20;;;6.50;;
8007;SDS011;4049;49.468;11.200;2023-06-22T00:11:07;9.57;;;6.53;;
8007;SDS011;4049;49.468;11.200;2023-06-22T00:13:35;7.93;;;5.93;;
8007;SDS011;4049;49.468;11.200;2023-06-22T00:16:02;8.60;;;6.40;;
8007;SDS011;4049;49.468;11.200;2023-06-22T00:18:29;10.10;;;6.20;;
8007;SDS011;4049;49.468;11.200;2023-06-22T00:20:56;10.00;;;6.80;;
8007;SDS011;4049;49.468;11.200;2023-06-22T00:23:24;9.53;;;6.27;;
8007;SDS011;4049;49.468;11.200;2023-06-22T00:25:51;10.20;;;6.07;;
8007;SDS011;4049;49.468;11.200;2023-06-22T00:28:18;8.83;;;6.27;;
8007;SDS011;4049;49.468;11.200;2023-06-22T00:30:46;8.87;;;5.87;;
8007;SDS011;4049;49.468;11.200;2023-06-22T00:33:14;8.20;;;5.60;;
8007;SDS011;4049;49.468;11.200;2023-06-22T00:35:41;8.60;;;6.23;;
8007;SDS011;4049;49.468;11.200;2023-06-22T00:38:08;8.43;;;5.50;;
8007;SDS011;4049;49.468;11.200;2023-06-22T00:40:35;8.63;;;5.70;;
8007;SDS011;4049;49.468;11.200;2023-06-22T00:43:02;7.87;;;5.80;;
8007;SDS011;4049;49.468;11.200;2023-06-22T00:45:30;8.67;;;5.40;;
8007;SDS011;4049;49.468;11.200;2023-06-22T00:47:58;10.00;;;6.17;;
8007;SDS011;4049;49.468;11.200;2023-06-22T00:50:26;10.50;;;6.00;;
8007;SDS011;4049;49.468;11.200;2023-06-22T00:52:59;7.70;;;6.07;;
8007;SDS011;4049;49.468;11.200;2023-06-22T00:55:27;8.73;;;6.07;;
8007;SDS011;4049;49.468;11.200;2023-06-22T00:57:54;9.23;;;5.83;;
8007;SDS011;4049;49.468;11.200;2023-06-22T01:00:22;8.07;;;6.40;;
8007;SDS011;4049;49.468;11.200;2023-06-22T01:02:50;8.40;;;6.07;;
8007;SDS011;4049;49.468;11.200;2023-06-22T01:05:19;9.13;;;5.73;;
8007;SDS011;4049;49.468;11.200;2023-06-22T01:07:52;9.10;;;6.40;;
8007;SDS011;4049;49.468;11.200;2023-06-22T01:10:30;7.70;;;5.53;;
8007;SDS011;4049;49.468;11.200;2023-06-22T01:13:01;8.50;;;5.90;;
8007;SDS011;4049;49.468;11.200;2023-06-22T01:15:31;6.93;;;5.67;;
8007;SDS011;4049;49.468;11.200;2023-06-22T01:18:03;7.37;;;5.70;;
8007;SDS011;4049;49.468;11.200;2023-06-22T01:20:32;9.33;;;5.87;;
8007;SDS011;4049;49.468;11.200;2023-06-22T01:23:09;9.73;;;6.43;;
8007;SDS011;4049;49.468;11.200;2023-06-22T01:25:45;7.20;;;4.90;;
8007;SDS011;4049;49.468;11.200;2023-06-22T01:28:23;8.13;;;5.93;;
8007;SDS011;4049;49.468;11.200;2023-06-22T01:31:01;8.60;;;6.10;;
8007;SDS011;4049;49.468;11.200;2023-06-22T01:33:31;8.40;;;5.90;;
8007;SDS011;4049;49.468;11.200;2023-06-22T01:36:01;12.30;;;6.37;;
8007;SDS011;4049;49.468;11.200;2023-06-22T01:38:29;10.47;;;6.50;;
8007;SDS011;4049;49.468;11.200;2023-06-22T01:40:56;8.70;;;5.97;;
8007;SDS011;4049;49.468;11.200;2023-06-22T01:43:25;9.17;;;6.13;;
8007;SDS011;4049;49.468;11.200;2023-06-22T01:45:55;8.80;;;6.33;;
8007;SDS011;4049;49.468;11.200;2023-06-22T01:48:22;9.67;;;6.40;;
8007;SDS011;4049;49.468;11.200;2023-06-22T01:50:51;9.33;;;6.13;;
8007;SDS011;4049;49.468;11.200;2023-06-22T01:53:18;7.37;;;5.80;;
8007;SDS011;4049;49.468;11.200;2023-06-22T01:55:47;9.53;;;6.17;;
8007;SDS011;4049;49.468;11.200;2023-06-22T01:58:14;8.63;;;6.03;;
8007;SDS011;4049;49.468;11.200;2023-06-22T02:00:52;8.33;;;5.53;;
8007;SDS011;4049;49.468;11.200;2023-06-22T02:03:26;10.07;;;5.83;;
8007;SDS011;4049;49.468;11.200;2023-06-22T02:05:56;7.23;;;5.80;;
8007;SDS011;4049;49.468;11.200;2023-06-22T02:08:30;8.87;;;5.60;;
8007;SDS011;4049;49.468;11.200;2023-06-22T02:11:01;8.97;;;5.90;;
8007;SDS011;4049;49.468;11.200;2023-06-22T02:13:29;9.40;;;6.27;;
8007;SDS011;4049;49.468;11.200;2023-06-22T02:15:58;8.60;;;6.13;;
8007;SDS011;4049;49.468;11.200;2023-06-22T02:18:26;7.10;;;6.40;;
8007;SDS011;4049;49.468;11.200;2023-06-22T02:20:53;9.63;;;6.27;;
8007;SDS011;4049;49.468;11.200;2023-06-22T02:23:20;9.60;;;6.47;;
8007;SDS011;4049;49.468;11.200;2023-06-22T02:25:47;7.67;;;5.17;;
8007;SDS011;4049;49.468;11.200;2023-06-22T02:28:13;7.53;;;5.73;;
8007;SDS011;4049;49.468;11.200;2023-06-22T02:30:40;9.87;;;6.00;;
8007;SDS011;4049;49.468;11.200;2023-06-22T02:33:08;8.47;;;6.33;;
8007;SDS011;4049;49.468;11.200;2023-06-22T02:35:35;8.50;;;6.47;;
8007;SDS011;4049;49.468;11.200;2023-06-22T02:38:03;8.40;;;6.10;;
8007;SDS011;4049;49.468;11.200;2023-06-22T02:40:30;10.23;;;6.50;;
8007;SDS011;4049;49.468;11.200;2023-06-22T02:42:58;8.37;;;5.97;;
8007;SDS011;4049;49.468;11.200;2023-06-22T02:45:27;9.50;;;6.33;;
8007;SDS011;4049;49.468;11.200;2023-06-22T02:47:54;8.57;;;6.00;;
8007;SDS011;4049;49.468;11.200;2023-06-22T02:50:23;7.33;;;5.87;;
8007;SDS011;4049;49.468;11.200;2023-06-22T02:52:50;10.83;;;6.00;;
8007;SDS011;4049;49.468;11.200;2023-06-22T02:55:17;8.73;;;6.63;;
8007;SDS011;4049;49.468;11.200;2023-06-22T02:57:43;8.77;;;6.23;;
8007;SDS011;4049;49.468;11.200;2023-06-22T03:00:12;8.60;;;6.80;;
8007;SDS011;4049;49.468;11.200;2023-06-22T03:02:42;9.70;;;6.60;;
8007;SDS011;4049;49.468;11.200;2023-06-22T03:05:10;9.07;;;6.57;;
8007;SDS011;4049;49.468;11.200;2023-06-22T03:07:39;8.10;;;6.40;;
8007;SDS011;4049;49.468;11.200;2023-06-22T03:10:07;13.17;;;7.10;;
8007;SDS011;4049;49.468;11.200;2023-06-22T03:12:35;9.77;;;6.27;;
8007;SDS011;4049;49.468;11.200;2023-06-22T03:15:02;8.43;;;6.63;;
8007;SDS011;4049;49.468;11.200;2023-06-22T03:17:30;10.77;;;6.33;;
8007;SDS011;4049;49.468;11.200;2023-06-22T03:19:57;9.20;;;6.53;;
8007;SDS011;4049;49.468;11.200;2023-06-22T03:22:24;10.37;;;6.60;;
8007;SDS011;4049;49.468;11.200;2023-06-22T03:24:52;9.73;;;6.10;;
8007;SDS011;4049;49.468;11.200;2023-06-22T03:27:19;10.73;;;6.30;;
8007;SDS011;4049;49.468;11.200;2023-06-22T03:29:46;9.87;;;6.63;;
8007;SDS011;4049;49.468;11.200;2023-06-22T03:32:13;10.03;;;6.33;;
8007;SDS011;4049;49.468;11.200;2023-06-22T03:34:40;9.77;;;6.50;;
8007;SDS011;4049;49.468;11.200;2023-06-22T03:37:12;10.83;;;6.30;;
8007;SDS011;4049;49.468;11.200;2023-06-22T03:39:40;7.43;;;6.23;;
8007;SDS011;4049;49.468;11.200;2023-06-22T03:42:08;8.80;;;6.60;;
8007;SDS011;4049;49.468;11.200;2023-06-22T03:44:35;8.03;;;6.70;;
8007;SDS011;4049;49.468;11.200;2023-06-22T03:47:02;10.03;;;7.00;;
8007;SDS011;4049;49.468;11.200;2023-06-22T03:49:31;8.73;;;6.30;;
8007;SDS011;4049;49.468;11.200;2023-06-22T03:51:59;8.53;;;5.80;;
8007;SDS011;4049;49.468;11.200;2023-06-22T03:54:25;9.63;;;6.57;;
8007;SDS011;4049;49.468;11.200;2023-06-22T03:56:52;11.10;;;6.67;;
8007;SDS011;4049;49.468;11.200;2023-06-22T03:59:21;9.67;;;6.80;;
8007;SDS011;4049;49.468;11.200;2023-06-22T04:01:47;11.63;;;6.90;;
8007;SDS011;4049;49.468;11.200;2023-06-22T04:04:15;9.70;;;6.67;;
8007;SDS011;4049;49.468;11.200;2023-06-22T04:06:42;9.97;;;6.27;;
8007;SDS011;4049;49.468;11.200;2023-06-22T04:09:09;10.47;;;6.80;;
8007;SDS011;4049;49.468;11.200;2023-06-22T04:11:36;11.20;;;6.63;;
8007;SDS011;4049;49.468;11.200;2023-06-22T04:14:03;12.10;;;7.13;;
8007;SDS011;4049;49.468;11.200;2023-06-22T04:16:31;8.80;;;6.30;;
8007;SDS011;4049;49.468;11.200;2023-06-22T04:18:58;11.80;;;7.83;;
8007;SDS011;4049;49.468;11.200;2023-06-22T04:21:24;9.50;;;6.67;;
8007;SDS011;4049;49.468;11.200;2023-06-22T04:23:51;7.40;;;6.00;;
8007;SDS011;4049;49.468;11.200;2023-06-22T04:26:18;8.43;;;6.10;;
8007;SDS011;4049;49.468;11.200;2023-06-22T04:28:46;9.20;;;6.67;;
8007;SDS011;4049;49.468;11.200;2023-06-22T04:31:16;10.53;;;7.20;;
8007;SDS011;4049;49.468;11.200;2023-06-22T04:33:46;9.33;;;7.03;;
8007;SDS011;4049;49.468;11.200;2023-06-22T04:36:13;8.70;;;6.50;;
8007;SDS011;4049;49.468;11.200;2023-06-22T04:38:40;11.57;;;7.40;;
8007;SDS011;4049;49.468;11.200;2023-06-22T04:41:07;11.67;;;7.83;;
8007;SDS011;4049;49.468;11.200;2023-06-22T04:43:39;9.73;;;6.40;;
8007;SDS011;4049;49.468;11.200;2023-06-22T04:46:06;9.30;;;7.13;;
8007;SDS011;4049;49.468;11.200;2023-06-22T04:48:33;9.30;;;6.83;;
8007;SDS011;4049;49.468;11.200;2023-06-22T04:51:01;9.70;;;7.23;;
8007;SDS011;4049;49.468;11.200;2023-06-22T04:53:29;7.87;;;5.87;;
8007;SDS011;4049;49.468;11.200;2023-06-22T04:55:56;8.27;;;6.33;;
8007;SDS011;4049;49.468;11.200;2023-06-22T04:58:23;9.07;;;6.03;;
8007;SDS011;4049;49.468;11.200;2023-06-22T05:00:53;9.07;;;6.50;;
8007;SDS011;4049;49.468;11.200;2023-06-22T05:03:22;11.63;;;7.00;;
8007;SDS011;4049;49.468;11.200;2023-06-22T05:05:51;10.17;;;7.03;;
8007;SDS011;4049;49.468;11.200;2023-06-22T05:08:20;10.23;;;6.53;;
8007;SDS011;4049;49.468;11.200;2023-06-22T05:10:53;9.03;;;6.90;;
8007;SDS011;4049;49.468;11.200;2023-06-22T05:13:20;10.47;;;6.67;;
8007;SDS011;4049;49.468;11.200;2023-06-22T05:15:51;11.27;;;7.20;;
8007;SDS011;4049;49.468;11.200;2023-06-22T05:18:26;7.40;;;6.10;;
8007;SDS011;4049;49.468;11.200;2023-06-22T05:20:52;10.50;;;6.00;;
8007;SDS011;4049;49.468;11.200;2023-06-22T05:23:21;9.53;;;7.27;;
8007;SDS011;4049;49.468;11.200;2023-06-22T05:25:48;9.37;;;6.43;;
8007;SDS011;4049;49.468;11.200;2023-06-22T05:28:14;9.27;;;7.20;;
8007;SDS011;4049;49.468;11.200;2023-06-22T05:30:41;8.17;;;6.43;;
8007;SDS011;4049;49.468;11.200;2023-06-22T05:33:08;9.83;;;7.50;;
8007;SDS011;4049;49.468;11.200;2023-06-22T05:35:35;9.50;;;7.20;;
8007;SDS011;4049;49.468;11.200;2023-06-22T05:38:02;9.93;;;7.83;;
8007;SDS011;4049;49.468;11.200;2023-06-22T05:40:30;9.67;;;7.57;;
8007;SDS011;4049;49.468;11.200;2023-06-22T05:42:57;9.80;;;7.57;;
8007;SDS011;4049;49.468;11.200;2023-06-22T05:45:25;10.13;;;7.33;;
8007;SDS011;4049;49.468;11.200;2023-06-22T05:47:52;11.70;;;8.13;;
8007;SDS011;4049;49.468;11.200;2023-06-22T05:50:19;9.57;;;7.27;;
8007;SDS011;4049;49.468;11.200;2023-06-22T05:52:46;9.83;;;7.37;;
8007;SDS011;4049;49.468;11.200;2023-06-22T05:55:12;8.17;;;6.70;;
8007;SDS011;4049;49.468;11.200;2023-06-22T05:57:41;9.67;;;7.10;;
8007;SDS011;4049;49.468;11.200;2023-06-22T06:00:09;8.53;;;6.40;;
8007;SDS011;4049;49.468;11.200;2023-06-22T06:02:37;9.13;;;7.40;;
8007;SDS011;4049;49.468;11.200;2023-06-22T06:05:08;8.97;;;6.43;;
8007;SDS011;4049;49.468;11.200;2023-06-22T06:07:35;9.87;;;7.43;;
8007;SDS011;4049;49.468;11.200;2023-06-22T06:10:02;11.33;;;7.90;;
8007;SDS011;4049;49.468;11.200;2023-06-22T06:12:31;12.13;;;7.57;;
8007;SDS011;4049;49.468;11.200;2023-06-22T06:14:59;10.53;;;7.23;;
8007;SDS011;4049;49.468;11.200;2023-06-22T06:17:26;10.43;;;7.13;;
8007;SDS011;4049;49.468;11.200;2023-06-22T06:19:53;9.10;;;7.33;;
8007;SDS011;4049;49.468;11.200;2023-06-22T06:22:19;11.80;;;7.73;;
8007;SDS011;4049;49.468;11.200;2023-06-22T06:24:48;9.57;;;7.00;;
8007;SDS011;4049;49.468;11.200;2023-06-22T06:27:15;8.93;;;7.00;;
8007;SDS011;4049;49.468;11.200;2023-06-22T06:29:44;9.20;;;6.87;;
8007;SDS011;4049;49.468;11.200;2023-06-22T06:32:14;8.23;;;6.77;;
8007;SDS011;4049;49.468;11.200;2023-06-22T06:34:41;7.53;;;6.20;;
8007;SDS011;4049;49.468;11.200;2023-06-22T06:37:08;8.77;;;6.67;;
8007;SDS011;4049;49.468;11.200;2023-06-22T06:39:35;11.27;;;7.13;;
8007;SDS011;4049;49.468;11.200;2023-06-22T06:42:02;10.17;;;7.27;;
8007;SDS011;4049;49.468;11.200;2023-06-22T06:44:31;9.90;;;6.80;;
8007;SDS011;4049;49.468;11.200;2023-06-22T06:46:58;8.03;;;6.73;;
8007;SDS011;4049;49.468;11.200;2023-06-22T06:49:26;12.87;;;7.50;;
8007;SDS011;4049;49.468;11.200;2023-06-22T06:51:53;10.07;;;6.70;;
8007;SDS011;4049;49.468;11.200;2023-06-22T06:54:21;10.03;;;7.40;;
8007;SDS011;4049;49.468;11.200;2023-06-22T06:56:48;11.53;;;7.00;;
8007;SDS011;4049;49.468;11.200;2023-06-22T06:59:15;8.10;;;6.53;;
8007;SDS011;4049;49.468;11.200;2023-06-22T07:01:42;9.47;;;6.83;;
8007;SDS011;4049;49.468;11.200;2023-06-22T07:04:09;8.03;;;6.40;;
8007;SDS011;4049;49.468;11.200;2023-06-22T07:06:38;7.63;;;6.10;;
8007;SDS011;4049;49.468;11.200;2023-06-22T07:09:04;11.97;;;7.20;;
8007;SDS011;4049;49.468;11.200;2023-06-22T07:11:31;9.33;;;6.10;;
8007;SDS011;4049;49.468;11.200;2023-06-22T07:13:58;7.53;;;6.10;;
8007;SDS011;4049;49.468;11.200;2023-06-22T07:16:26;9.30;;;5.93;;
8007;SDS011;4049;49.468;11.200;2023-06-22T07:18:53;8.32;;;6.20;;
8007;SDS011;4049;49.468;11.200;2023-06-22T07:21:20;8.63;;;6.30;;
8007;SDS011;4049;49.468;11.200;2023-06-22T07:23:48;8.15;;;6.32;;
8007;SDS011;4049;49.468;11.200;2023-06-22T07:26:15;8.43;;;6.20;;
8007;SDS011;4049;49.468;11.200;2023-06-22T07:28:42;6.50;;;5.72;;
8007;SDS011;4049;49.468;11.200;2023-06-22T07:31:09;7.35;;;5.80;;
8007;SDS011;4049;49.468;11.200;2023-06-22T07:33:36;6.25;;;5.00;;
8007;SDS011;4049;49.468;11.200;2023-06-22T07:36:03;7.65;;;5.43;;
8007;SDS011;4049;49.468;11.200;2023-06-22T07:38:32;7.07;;;5.82;;
8007;SDS011;4049;49.468;11.200;2023-06-22T07:41:01;6.25;;;4.93;;
8007;SDS011;4049;49.468;11.200;2023-06-22T07:43:30;6.80;;;5.57;;
8007;SDS011;4049;49.468;11.200;2023-06-22T07:45:58;8.20;;;5.78;;
8007;SDS011;4049;49.468;11.200;2023-06-22T07:48:25;7.60;;;5.20;;
8007;SDS011;4049;49.468;11.200;2023-06-22T07:50:52;6.10;;;5.13;;
8007;SDS011;4049;49.468;11.200;2023-06-22T07:53:18;7.50;;;5.93;;
8007;SDS011;4049;49.468;11.200;2023-06-22T07:55:46;5.78;;;4.95;;
8007;SDS011;4049;49.468;11.200;2023-06-22T07:58:14;7.65;;;5.47;;
8007;SDS011;4049;49.468;11.200;2023-06-22T08:00:43;7.47;;;5.90;;
8007;SDS011;4049;49.468;11.200;2023-06-22T08:03:10;8.55;;;5.60;;
8007;SDS011;4049;49.468;11.200;2023-06-22T08:05:37;9.35;;;6.35;;
8007;SDS011;4049;49.468;11.200;2023-06-22T08:08:04;8.38;;;6.60;;
8007;SDS011;4049;49.468;11.200;2023-06-22T08:10:31;9.35;;;6.35;;
8007;SDS011;4049;49.468;11.200;2023-06-22T08:12:58;7.85;;;6.07;;
8007;SDS011;4049;49.468;11.200;2023-06-22T08:15:27;7.85;;;6.30;;
8007;SDS011;4049;49.468;11.200;2023-06-22T08:17:54;7.70;;;6.55;;
8007;SDS011;4049;49.468;11.200;2023-06-22T08:20:22;8.75;;;6.05;;
8007;SDS011;4049;49.468;11.200;2023-06-22T08:22:49;7.20;;;6.15;;
8007;SDS011;4049;49.468;11.200;2023-06-22T08:25:16;7.55;;;6.20;;
8007;SDS011;4049;49.468;11.200;2023-06-22T08:27:44;7.03;;;5.43;;
8007;SDS011;4049;49.468;11.200;2023-06-22T08:30:13;6.63;;;4.95;;
8007;SDS011;4049;49.468;11.200;2023-06-22T08:32:42;7.32;;;4.93;;
8007;SDS011;4049;49.468;11.200;2023-06-22T08:35:09;7.38;;;5.18;;
8007;SDS011;4049;49.468;11.200;2023-06-22T08:37:36;7.57;;;5.20;;
8007;SDS011;4049;49.468;11.200;2023-06-22T08:40:05;6.63;;;5.40;;
8007;SDS011;4049;49.468;11.200;2023-06-22T08:42:34;9.57;;;5.63;;
8007;SDS011;4049;49.468;11.200;2023-06-22T08:45:03;7.82;;;5.45;;
8007;SDS011;4049;49.468;11.200;2023-06-22T08:47:31;6.97;;;4.30;;
8007;SDS011;4049;49.468;11.200;2023-06-22T08:49:59;7.32;;;4.55;;
8007;SDS011;4049;49.468;11.200;2023-06-22T08:52:27;5.70;;;4.45;;
8007;SDS011;4049;49.468;11.200;2023-06-22T08:54:54;7.50;;;4.53;;
8007;SDS011;4049;49.468;11.200;2023-06-22T08:57:21;6.20;;;4.60;;
8007;SDS011;4049;49.468;11.200;2023-06-22T08:59:48;4.82;;;4.28;;
8007;SDS011;4049;49.468;11.200;2023-06-22T09:02:17;5.43;;;4.15;;
8007;SDS011;4049;49.468;11.200;2023-06-22T09:04:45;9.40;;;4.72;;
8007;SDS011;4049;49.468;11.200;2023-06-22T09:07:15;6.30;;;4.78;;
8007;SDS011;4049;49.468;11.200;2023-06-22T09:09:47;9.63;;;4.78;;
8007;SDS011;4049;49.468;11.200;2023-06-22T09:12:14;6.97;;;5.03;;
8007;SDS011;4049;49.468;11.200;2023-06-22T09:14:40;6.05;;;4.72;;
8007;SDS011;4049;49.468;11.200;2023-06-22T09:17:07;8.75;;;5.38;;
8007;SDS011;4049;49.468;11.200;2023-06-22T09:19:34;5.15;;;4.32;;
8007;SDS011;4049;49.468;11.200;2023-06-22T09:22:01;8.50;;;4.40;;
8007;SDS011;4049;49.468;11.200;2023-06-22T09:24:30;6.80;;;4.30;;
8007;SDS011;4049;49.468;11.200;2023-06-22T09:26:57;8.00;;;4.30;;
8007;SDS011;4049;49.468;11.200;2023-06-22T09:29:23;8.90;;;4.63;;
8007;SDS011;4049;49.468;11.200;2023-06-22T09:31:50;6.65;;;4.65;;
8007;SDS011;4049;49.468;11.200;2023-06-22T09:34:18;7.03;;;4.63;;
8007;SDS011;4049;49.468;11.200;2023-06-22T09:36:45;8.43;;;4.78;;
8007;SDS011;4049;49.468;11.200;2023-06-22T09:39:12;9.43;;;4.53;;
8007;SDS011;4049;49.468;11.200;2023-06-22T09:41:40;6.93;;;4.30;;
8007;SDS011;4049;49.468;11.200;2023-06-22T09:44:07;7.70;;;4.53;;
8007;SDS011;4049;49.468;11.200;2023-06-22T09:46:34;8.00;;;4.13;;
8007;SDS011;4049;49.468;11.200;2023-06-22T09:49:01;7.50;;;4.28;;
8007;SDS011;4049;49.468;11.200;2023-06-22T09:51:27;6.05;;;4.13;;
8007;SDS011;4049;49.468;11.200;2023-06-22T09:53:54;8.63;;;5.28;;
8007;SDS011;4049;49.468;11.200;2023-06-22T09:56:21;7.53;;;4.57;;
8007;SDS011;4049;49.468;11.200;2023-06-22T09:58:49;7.95;;;4.70;;
8007;SDS011;4049;49.468;11.200;2023-06-22T10:01:17;10.48;;;5.63;;
8007;SDS011;4049;49.468;11.200;2023-06-22T10:03:46;7.38;;;4.45;;
8007;SDS011;4049;49.468;11.200;2023-06-22T10:06:12;5.38;;;4.35;;
8007;SDS011;4049;49.468;11.200;2023-06-22T10:08:39;9.40;;;4.43;;
8007;SDS011;4049;49.468;11.200;2023-06-22T10:11:07;6.57;;;4.75;;
8007;SDS011;4049;49.468;11.200;2023-06-22T10:13:33;8.27;;;5.00;;
8007;SDS011;4049;49.468;11.200;2023-06-22T10:16:02;7.80;;;4.78;;
8007;SDS011;4049;49.468;11.200;2023-06-22T10:18:29;7.90;;;4.57;;
8007;SDS011;4049;49.468;11.200;2023-06-22T10:20:55;6.78;;;4.28;;
8007;SDS011;4049;49.468;11.200;2023-06-22T10:23:22;8.32;;;5.00;;
8007;SDS011;4049;49.468;11.200;2023-06-22T10:25:49;6.47;;;5.13;;
8007;SDS011;4049;49.468;11.200;2023-06-22T10:28:16;8.15;;;4.55;;
8007;SDS011;4049;49.468;11.200;2023-06-22T10:30:43;7.50;;;4.63;;
8007;SDS011;4049;49.468;11.200;2023-06-22T10:33:11;12.15;;;4.63;;
8007;SDS011;4049;49.468;11.200;2023-06-22T10:35:38;5.63;;;4.50;;
8007;SDS011;4049;49.468;11.200;2023-06-22T10:38:05;8.80;;;4.88;;
8007;SDS011;4049;49.468;11.200;2023-06-22T10:40:33;9.32;;;5.63;;
8007;SDS011;4049;49.468;11.200;2023-06-22T10:43:00;7.43;;;4.72;;
8007;SDS011;4049;49.468;11.200;2023-06-22T10:45:27;6.85;;;4.45;;
8007;SDS011;4049;49.468;11.200;2023-06-22T10:47:54;8.43;;;4.95;;
8007;SDS011;4049;49.468;11.200;2023-06-22T10:50:22;9.60;;;4.63;;
8007;SDS011;4049;49.468;11.200;2023-06-22T10:52:50;5.40;;;4.30;;
8007;SDS011;4049;49.468;11.200;2023-06-22T10:55:17;7.55;;;4.50;;
8007;SDS011;4049;49.468;11.200;2023-06-22T10:57:44;10.75;;;5.50;;
8007;SDS011;4049;49.468;11.200;2023-06-22T11:00:12;6.15;;;4.57;;
8007;SDS011;4049;49.468;11.200;2023-06-22T11:02:40;7.32;;;4.80;;
8007;SDS011;4049;49.468;11.200;2023-06-22T11:05:07;8.70;;;4.53;;
8007;SDS011;4049;49.468;11.200;2023-06-22T11:07:36;5.72;;;4.70;;
8007;SDS011;4049;49.468;11.200;2023-06-22T11:10:04;7.78;;;5.15;;
8007;SDS011;4049;49.468;11.200;2023-06-22T11:12:31;7.28;;;4.95;;
8007;SDS011;4049;49.468;11.200;2023-06-22T11:14:58;10.48;;;4.82;;
8007;SDS011;4049;49.468;11.200;2023-06-22T11:17:25;9.30;;;5.15;;
8007;SDS011;4049;49.468;11.200;2023-06-22T11:19:52;9.40;;;4.45;;
8007;SDS011;4049;49.468;11.200;2023-06-22T11:22:18;9.32;;;4.63;;
8007;SDS011;4049;49.468;11.200;2023-06-22T11:24:46;8.55;;;4.80;;
8007;SDS011;4049;49.468;11.200;2023-06-22T11:27:13;7.43;;;5.07;;
8007;SDS011;4049;49.468;11.200;2023-06-22T11:29:41;7.68;;;5.20;;
8007;SDS011;4049;49.468;11.200;2023-06-22T11:32:08;7.55;;;4.22;;
8007;SDS011;4049;49.468;11.200;2023-06-22T11:34:35;6.82;;;5.10;;
8007;SDS011;4049;49.468;11.200;2023-06-22T11:37:02;10.15;;;5.70;;
8007;SDS011;4049;49.468;11.200;2023-06-22T11:39:29;7.03;;;4.70;;
8007;SDS011;4049;49.468;11.200;2023-06-22T11:41:57;7.05;;;4.65;;
8007;SDS011;4049;49.468;11.200;2023-06-22T11:44:24;6.50;;;4.60;;
8007;SDS011;4049;49.468;11.200;2023-06-22T11:46:50;8.55;;;4.82;;
8007;SDS011;4049;49.468;11.200;2023-06-22T11:49:17;6.72;;;4.97;;
8007;SDS011;4049;49.468;11.200;2023-06-22T11:51:44;6.97;;;4.93;;
8007;SDS011;4049;49.468;11.200;2023-06-22T11:54:11;6.97;;;4.55;;
8007;SDS011;4049;49.468;11.200;2023-06-22T11:56:38;5.80;;;4.55;;
8007;SDS011;4049;49.468;11.200;2023-06-22T11:59:06;10.27;;;5.10;;
8007;SDS011;4049;49.468;11.200;2023-06-22T12:01:33;7.93;;;4.80;;
8007;SDS011;4049;49.468;11.200;2023-06-22T12:04:00;7.53;;;4.60;;
8007;SDS011;4049;49.468;11.200;2023-06-22T12:06:30;7.50;;;5.13;;
8007;SDS011;4049;49.468;11.200;2023-06-22T12:08:57;7.60;;;4.88;;
8007;SDS011;4049;49.468;11.200;2023-06-22T12:11:24;9.50;;;4.88;;
8007;SDS011;4049;49.468;11.200;2023-06-22T12:13:51;8.50;;;5.10;;
8007;SDS011;4049;49.468;11.200;2023-06-22T12:16:19;8.23;;;4.70;;
8007;SDS011;4049;49.468;11.200;2023-06-22T12:18:47;10.52;;;5.45;;
8007;SDS011;4049;49.468;11.200;2023-06-22T12:21:13;5.97;;;4.78;;
8007;SDS011;4049;49.468;11.200;2023-06-22T12:23:40;7.75;;;4.90;;
8007;SDS011;4049;49.468;11.200;2023-06-22T12:26:07;7.93;;;5.35;;
8007;SDS011;4049;49.468;11.200;2023-06-22T12:28:34;7.43;;;4.43;;
8007;SDS011;4049;49.468;11.200;2023-06-22T12:31:01;7.20;;;4.68;;
8007;SDS011;4049;49.468;11.200;2023-06-22T12:33:29;8.65;;;5.20;;
8007;SDS011;4049;49.468;11.200;2023-06-22T12:35:56;8.35;;;4.90;;
8007;SDS011;4049;49.468;11.200;2023-06-22T12:38:23;6.93;;;5.28;;
8007;SDS011;4049;49.468;11.200;2023-06-22T12:40:51;7.85;;;5.00;;
8007;SDS011;4049;49.468;11.200;2023-06-22T12:43:17;10.20;;;4.65;;
8007;SDS011;4049;49.468;11.200;2023-06-22T12:45:44;7.82;;;4.65;;
8007;SDS011;4049;49.468;11.200;2023-06-22T12:48:11;7.32;;;5.22;;
8007;SDS011;4049;49.468;11.200;2023-06-22T12:50:40;8.35;;;4.97;;
8007;SDS011;4049;49.468;11.200;2023-06-22T12:53:07;9.73;;;5.28;;
8007;SDS011;4049;49.468;11.200;2023-06-22T12:55:33;9.60;;;4.47;;
8007;SDS011;4049;49.468;11.200;2023-06-22T12:58:00;8.75;;;5.18;;
8007;SDS011;4049;49.468;11.200;2023-06-22T13:00:27;7.40;;;5.22;;
8007;SDS011;4049;49.468;11.200;2023-06-22T13:02:54;8.88;;;5.18;;
8007;SDS011;4049;49.468;11.200;2023-06-22T13:05:21;10.90;;;5.15;;
8007;SDS011;4049;49.468;11.200;2023-06-22T13:07:49;7.57;;;4.75;;
8007;SDS011;4049;49.468;11.200;2023-06-22T13:10:16;6.95;;;4.93;;
8007;SDS011;4049;49.468;11.200;2023-06-22T13:12:43;6.32;;;5.03;;
8007;SDS011;4049;49.468;11.200;2023-06-22T13:15:10;10.20;;;5.60;;
8007;SDS011;4049;49.468;11.200;2023-06-22T13:17:37;7.13;;;4.50;;
8007;SDS011;4049;49.468;11.200;2023-06-22T13:20:04;10.43;;;5.28;;
8007;SDS011;4049;49.468;11.200;2023-06-22T13:22:32;8.55;;;5.30;;
8007;SDS011;4049;49.468;11.200;2023-06-22T13:25:06;9.73;;;4.95;;
8007;SDS011;4049;49.468;11.200;2023-06-22T13:27:36;9.82;;;5.45;;
8007;SDS011;4049;49.468;11.200;2023-06-22T13:30:04;9.02;;;5.85;;
8007;SDS011;4049;49.468;11.200;2023-06-22T13:32:31;7.05;;;5.18;;
8007;SDS011;4049;49.468;11.200;2023-06-22T13:34:58;9.82;;;4.70;;
8007;SDS011;4049;49.468;11.200;2023-06-22T13:37:25;16.88;;;5.88;;
8007;SDS011;4049;49.468;11.200;2023-06-22T13:39:52;8.63;;;4.93;;
8007;SDS011;4049;49.468;11.200;2023-06-22T13:42:22;9.07;;;5.63;;
8007;SDS011;4049;49.468;11.200;2023-06-22T13:44:50;10.48;;;5.10;;
8007;SDS011;4049;49.468;11.200;2023-06-22T13:47:17;7.53;;;5.00;;
8007;SDS011;4049;49.468;11.200;2023-06-22T13:49:43;9.40;;;5.70;;
8007;SDS011;4049;49.468;11.200;2023-06-22T13:52:10;9.68;;;5.10;;
8007;SDS011;4049;49.468;11.200;2023-06-22T13:54:37;7.55;;;4.63;;
8007;SDS011;4049;49.468;11.200;2023-06-22T13:57:04;7.80;;;5.22;;
8007;SDS011;4049;49.468;11.200;2023-06-22T13:59:33;10.63;;;5.53;;
8007;SDS011;4049;49.468;11.200;2023-06-22T14:02:00;12.80;;;5.30;;
8007;SDS011;4049;49.468;11.200;2023-06-22T14:04:28;9.88;;;5.18;;
8007;SDS011;4049;49.468;11.200;2023-06-22T14:06:55;10.55;;;5.20;;
8007;SDS011;4049;49.468;11.200;2023-06-22T14:09:22;8.63;;;5.45;;
8007;SDS011;4049;49.468;11.200;2023-06-22T14:11:49;9.15;;;5.10;;
8007;SDS011;4049;49.468;11.200;2023-06-22T14:14:16;10.35;;;5.75;;
8007;SDS011;4049;49.468;11.200;2023-06-22T14:16:44;9.98;;;5.28;;
8007;SDS011;4049;49.468;11.200;2023-06-22T14:19:11;7.68;;;5.13;;
8007;SDS011;4049;49.468;11.200;2023-06-22T14:21:38;9.75;;;4.78;;
8007;SDS011;4049;49.468;11.200;2023-06-22T14:24:05;12.75;;;5.55;;
8007;SDS011;4049;49.468;11.200;2023-06-22T14:26:32;10.65;;;5.15;;
8007;SDS011;4049;49.468;11.200;2023-06-22T14:28:59;8.10;;;5.32;;
8007;SDS011;4049;49.468;11.200;2023-06-22T14:31:26;9.18;;;5.90;;
8007;SDS011;4049;49.468;11.200;2023-06-22T14:33:56;9.48;;;5.40;;
8007;SDS011;4049;49.468;11.200;2023-06-22T14:36:23;8.05;;;5.38;;
8007;SDS011;4049;49.468;11.200;2023-06-22T14:38:52;6.97;;;4.90;;
8007;SDS011;4049;49.468;11.200;2023-06-22T14:41:19;8.23;;;4.70;;
8007;SDS011;4049;49.468;11.200;2023-06-22T14:43:46;7.03;;;5.03;;
8007;SDS011;4049;49.468;11.200;2023-06-22T14:46:15;8.40;;;5.07;;
8007;SDS011;4049;49.468;11.200;2023-06-22T14:48:43;9.98;;;5.18;;
8007;SDS011;4049;49.468;11.200;2023-06-22T14:51:12;8.70;;;5.63;;
8007;SDS011;4049;49.468;11.200;2023-06-22T14:53:39;10.20;;;5.50;;
8007;SDS011;4049;49.468;11.200;2023-06-22T14:56:06;10.35;;;5.22;;
8007;SDS011;4049;49.468;11.200;2023-06-22T14:58:33;7.57;;;5.72;;
8007;SDS011;4049;49.468;11.200;2023-06-22T15:01:01;7.90;;;5.32;;